Share

Galena, AK

10:00 PM AKDT on April 23, 2014 (GMT -0800)
Pitka (PAGA) Elev 151 ft | 64.74 °N, 156.94 °W | Change Station

Current weather conditions updated 1 hour ago

Clear
Clear
46 °F
Feels Like 42 °F
N
8
Wind Variable Wind from North
Sunrise 6:23 AM
Sunset 10:30 PM
Moon Waning Crescent

Tomorrow is forecast to be Warmer than today. Showers early tomorrow night.

Pressure 29.69 in
Visibility 10.0 miles
Clouds Clear
Windchill 42 °F
Dew Point 21 °F
Humidity 37%
Rainfall 0.00 in
Snow Depth Not available.
UV 0 out of 16
Pollen Not available.
Air Quality Not available.
Flu Activity Sporadic
METAR PAGA 240458Z AUTO 36007KT 10SM CLR 08/M06 A2967 RMK AO2 SLP053 T00781061 PNO $

More Conditions Fewer Conditions

Pressure 29.69 in
Visibility 10.0 miles
Clouds Clear
Windchill 42 °F
Dew Point 21 °F
Humidity 37%
Rainfall 0.00 in
Snow Depth Not available.
UV 0 out of 16
Pollen Not available.
Air Quality Not available.
Flu Activity Sporadic
METAR PAGA 240458Z AUTO 36007KT 10SM CLR 08/M06 A2967 RMK AO2 SLP053 T00781061 PNO $

More Conditions Fewer Conditions

10-Day Weather Forecast

Almanac

Astronomy

Apr. 23, 2014 Rise Set
Actual Time 6:23 AM AKDT 10:30 PM AKDT
Civil Twilight 5:20 AM AKDT 11:35 PM AKDT
Nautical Twilight 3:20 AM AKDT 1:46 AM AKDT
Astronomical Twilight Sun does not rise Sun does not rise
Moon 5:14 AM AKDT (4/23) 2:47 PM AKDT (4/23)
Length of Visible Light 18h 15m
Length of Day
16h 07m
Tomorrow will be 6m 54s longer.
Waning Crescent, 29% of the Moon is Illuminated
Apr 24
Waning Crescent
Apr 29
New
May 6
First Quarter
May 14
Full
May 21
Last Quarter

Yesterday's Extremes

State Highs State Lows

Community

  • Stacked
    Stacked
  • clouds approaching Red Sox Nation
    clouds approaching Red Sox Nation
  • Balance
    Balance
  • Nestled In
    Nestled In
  • Stunning Sunrise
    Stunning Sunrise

WunderPhotos

Upload Photos

1,704,566 photos uploaded!

WunderBlogs® & News

Nearby

Snow Depth

Station Depth Elevation
Rocky Point 1 in 500 ft
Gobblers Knob 6 in 2030 ft
Coldfoot 21 in 1040 ft
Susitna Valley High 12 in 375 ft
Little Chena Ridge 6 in 2000 ft

Coastal Water Temperatures

Place Temperature
No Stations Reporting

Earthquake Activity

City Distance Mag. Time & Date
No recent earthquake activity has been reported nearby.
Minimum magnitude displayed is 2.5.

Nearby Weather Stations

There are no personal weather stations in this area.

What do you think?

We're not finished. Please let us know what you like, what you don't like, and what you are still missing.